createdAt,value
2022-08-26T00:01:10.814Z,5.87
2022-08-26T00:03:45.777Z,6.50
2022-08-26T00:06:20.980Z,6.80
2022-08-26T00:08:56.031Z,6.00
2022-08-26T00:11:31.074Z,5.63
2022-08-26T00:14:06.058Z,6.10
2022-08-26T00:16:48.042Z,6.50
2022-08-26T00:19:23.886Z,6.10
2022-08-26T00:21:58.968Z,5.80
2022-08-26T00:24:34.626Z,5.60
2022-08-26T00:27:09.587Z,6.50
2022-08-26T00:29:45.073Z,6.70
2022-08-26T00:32:20.062Z,6.07
2022-08-26T00:34:55.068Z,5.60
2022-08-26T00:37:30.020Z,6.10
2022-08-26T00:40:11.340Z,6.47
2022-08-26T00:42:46.601Z,5.20
2022-08-26T00:45:23.900Z,6.03
2022-08-26T00:48:03.789Z,6.40
2022-08-26T00:50:43.314Z,6.30
2022-08-26T00:53:24.192Z,6.13
2022-08-26T00:56:18.277Z,5.77
2022-08-26T00:58:56.983Z,5.37
2022-08-26T01:01:32.463Z,6.33
2022-08-26T01:04:10.196Z,6.30
2022-08-26T01:06:46.770Z,5.70
2022-08-26T01:09:23.638Z,5.77
2022-08-26T01:12:02.341Z,6.83
2022-08-26T01:14:40.159Z,6.73
2022-08-26T01:17:15.256Z,6.63
2022-08-26T01:20:01.451Z,6.80
2022-08-26T01:22:55.542Z,6.67
2022-08-26T01:25:33.817Z,6.00
2022-08-26T01:28:16.363Z,6.87
2022-08-26T01:30:55.999Z,6.40
2022-08-26T01:33:54.858Z,6.07
2022-08-26T01:36:31.422Z,6.23
2022-08-26T01:39:07.753Z,6.57
2022-08-26T01:41:44.158Z,6.20
2022-08-26T01:44:25.683Z,7.10
2022-08-26T01:47:02.213Z,6.60
2022-08-26T01:49:44.426Z,6.27
2022-08-26T01:52:27.581Z,7.00
2022-08-26T01:55:05.273Z,6.50
2022-08-26T01:57:44.883Z,6.40
2022-08-26T02:00:19.874Z,6.70
2022-08-26T02:03:16.482Z,6.63
2022-08-26T02:06:00.813Z,6.30
2022-08-26T02:08:46.923Z,6.70
2022-08-26T02:11:22.641Z,7.33
2022-08-26T02:14:11.155Z,6.23
2022-08-26T02:16:50.210Z,6.40
2022-08-26T02:19:30.872Z,6.87
2022-08-26T02:22:14.242Z,6.57
2022-08-26T02:25:08.213Z,6.93
2022-08-26T02:27:43.530Z,7.70
2022-08-26T02:30:28.075Z,6.93
2022-08-26T02:33:06.881Z,7.20
2022-08-26T02:35:43.274Z,8.43
2022-08-26T02:38:18.313Z,6.87
2022-08-26T02:40:53.365Z,8.10
2022-08-26T02:43:32.721Z,7.20
2022-08-26T02:46:08.011Z,9.10
2022-08-26T02:48:43.742Z,7.07
2022-08-26T02:51:18.723Z,8.20
2022-08-26T02:53:54.076Z,7.83
2022-08-26T02:56:33.718Z,7.87
2022-08-26T02:59:15.414Z,8.27
2022-08-26T03:01:50.547Z,8.10
2022-08-26T03:04:25.854Z,7.87
2022-08-26T03:07:01.438Z,9.00
2022-08-26T03:09:36.427Z,8.30
2022-08-26T03:12:12.002Z,8.63
2022-08-26T03:14:49.026Z,8.47
2022-08-26T03:17:23.994Z,7.80
2022-08-26T03:20:02.688Z,8.70
2022-08-26T03:22:40.204Z,7.60
2022-08-26T03:25:16.726Z,8.50
2022-08-26T03:27:53.538Z,7.97
2022-08-26T03:30:45.103Z,8.60
2022-08-26T03:33:20.702Z,8.80
2022-08-26T03:35:55.678Z,8.70
2022-08-26T03:38:32.566Z,7.97
2022-08-26T03:41:09.698Z,8.37
2022-08-26T03:43:45.514Z,9.47
2022-08-26T03:46:22.869Z,9.07
2022-08-26T03:49:05.158Z,8.60
2022-08-26T03:51:40.517Z,8.50
2022-08-26T03:54:17.970Z,9.00
2022-08-26T03:56:53.592Z,9.00
2022-08-26T03:59:28.729Z,9.00
2022-08-26T04:02:03.798Z,8.20
2022-08-26T04:04:46.473Z,9.77
2022-08-26T04:07:21.679Z,8.50
2022-08-26T04:09:58.892Z,8.67
2022-08-26T04:12:34.305Z,7.97
2022-08-26T04:15:14.008Z,9.10
2022-08-26T04:17:49.532Z,9.07
2022-08-26T04:20:26.622Z,9.30
2022-08-26T04:23:01.747Z,9.30
2022-08-26T04:25:36.942Z,8.80
2022-08-26T04:28:15.623Z,8.87
2022-08-26T04:30:51.112Z,9.23
2022-08-26T04:33:32.262Z,9.70
2022-08-26T04:36:09.005Z,7.97
2022-08-26T04:38:45.723Z,10.00
2022-08-26T04:41:21.209Z,9.97
2022-08-26T04:43:57.028Z,10.13
2022-08-26T04:46:33.655Z,10.20
2022-08-26T04:49:09.638Z,9.07
2022-08-26T04:51:47.050Z,9.03
2022-08-26T04:54:22.256Z,9.13
2022-08-26T04:56:57.474Z,9.63
2022-08-26T04:59:36.022Z,9.10
2022-08-26T05:02:14.200Z,9.67
2022-08-26T05:04:49.411Z,8.40
2022-08-26T05:07:27.067Z,7.97
2022-08-26T05:10:03.892Z,8.80
2022-08-26T05:12:44.363Z,8.33
2022-08-26T05:15:19.546Z,8.00
2022-08-26T05:17:54.634Z,9.00
2022-08-26T05:20:30.060Z,9.10
2022-08-26T05:23:05.264Z,7.87
2022-08-26T05:25:48.304Z,8.67
2022-08-26T05:28:23.525Z,9.00
2022-08-26T05:30:59.563Z,9.60
2022-08-26T05:33:35.070Z,8.67
2022-08-26T05:36:15.182Z,7.83
2022-08-26T05:38:50.568Z,8.30
2022-08-26T05:41:36.042Z,8.07
2022-08-26T05:44:15.050Z,8.63
2022-08-26T05:46:51.888Z,8.40
2022-08-26T05:49:26.854Z,8.13
2022-08-26T05:52:01.826Z,8.30
2022-08-26T05:54:39.713Z,7.70
2022-08-26T05:57:14.754Z,8.23
2022-08-26T05:59:49.845Z,8.17
2022-08-26T06:02:24.879Z,8.00
2022-08-26T06:05:00.994Z,7.37
2022-08-26T06:07:54.734Z,8.10
2022-08-26T06:10:32.787Z,7.40
2022-08-26T06:13:11.942Z,7.30
2022-08-26T06:15:50.130Z,7.20
2022-08-26T06:18:36.437Z,7.20
2022-08-26T06:21:42.690Z,8.00
2022-08-26T06:24:36.881Z,7.30
2022-08-26T06:27:15.176Z,7.77
2022-08-26T06:29:51.531Z,7.37
2022-08-26T06:32:26.574Z,8.03
2022-08-26T06:35:01.653Z,7.60
2022-08-26T06:37:36.732Z,8.00
2022-08-26T06:40:12.179Z,7.60
2022-08-26T06:42:47.276Z,6.80
2022-08-26T06:45:22.412Z,8.20
2022-08-26T06:47:57.490Z,7.93
2022-08-26T06:50:34.273Z,7.17
2022-08-26T06:53:11.179Z,7.10
2022-08-26T06:55:46.853Z,7.47
2022-08-26T06:58:26.725Z,6.60
2022-08-26T07:01:04.426Z,6.60
2022-08-26T07:03:48.259Z,7.17
2022-08-26T07:06:24.633Z,6.90
2022-08-26T07:09:06.388Z,6.20
2022-08-26T07:11:45.797Z,7.23
2022-08-26T07:14:21.793Z,6.57
2022-08-26T07:16:57.312Z,6.53
2022-08-26T07:19:32.314Z,7.53
2022-08-26T07:22:08.648Z,6.53
2022-08-26T07:24:45.653Z,7.30
2022-08-26T07:27:21.162Z,7.03
2022-08-26T07:29:57.436Z,6.17
2022-08-26T07:32:33.232Z,7.40
2022-08-26T07:35:08.758Z,7.77
2022-08-26T07:37:43.775Z,6.63
2022-08-26T07:40:19.154Z,8.67
2022-08-26T07:42:55.315Z,7.77
2022-08-26T07:45:30.311Z,6.90
2022-08-26T07:48:05.971Z,6.80
2022-08-26T07:50:50.256Z,7.43
2022-08-26T07:53:25.867Z,5.90
2022-08-26T07:56:01.049Z,6.63
2022-08-26T07:58:36.277Z,6.53
2022-08-26T08:01:12.368Z,6.17
2022-08-26T08:03:51.554Z,6.43
2022-08-26T08:06:28.259Z,7.40
2022-08-26T08:09:06.687Z,7.27
2022-08-26T08:11:42.506Z,7.13
2022-08-26T08:14:22.049Z,5.67
2022-08-26T08:16:57.637Z,6.93
2022-08-26T08:19:39.102Z,6.50
2022-08-26T08:22:19.936Z,7.80
2022-08-26T08:24:56.833Z,7.40
2022-08-26T08:27:38.183Z,7.57
2022-08-26T08:30:15.092Z,6.77
2022-08-26T08:32:56.292Z,7.00
2022-08-26T08:35:31.306Z,6.43
2022-08-26T08:38:06.486Z,6.73
2022-08-26T08:40:45.686Z,6.50
2022-08-26T08:43:29.478Z,6.37
2022-08-26T08:46:12.932Z,6.97
2022-08-26T08:48:54.566Z,6.13
2022-08-26T08:51:38.735Z,6.20
2022-08-26T08:54:14.295Z,6.70
2022-08-26T08:57:03.754Z,6.00
2022-08-26T08:59:59.546Z,6.10
2022-08-26T09:02:46.237Z,6.10
2022-08-26T09:05:31.649Z,4.80
2022-08-26T09:08:20.171Z,5.50
2022-08-26T09:11:01.485Z,5.27
2022-08-26T09:13:38.746Z,5.60
2022-08-26T09:16:41.395Z,4.90
2022-08-26T09:19:40.025Z,4.80
2022-08-26T09:22:35.487Z,5.17
2022-08-26T09:25:14.143Z,4.90
2022-08-26T09:27:52.501Z,4.00
2022-08-26T09:30:35.363Z,4.60
2022-08-26T09:33:18.201Z,4.63
2022-08-26T09:36:16.510Z,4.43
2022-08-26T09:38:54.061Z,4.23
2022-08-26T09:41:33.273Z,4.70
2022-08-26T09:44:18.335Z,4.70
2022-08-26T09:47:06.075Z,4.80
2022-08-26T09:49:41.764Z,4.40
2022-08-26T09:52:27.466Z,4.50
2022-08-26T09:55:21.607Z,5.90
2022-08-26T09:57:57.534Z,4.40
2022-08-26T10:00:57.303Z,5.43
2022-08-26T10:03:36.294Z,5.00
2022-08-26T10:06:17.606Z,5.43
2022-08-26T10:09:05.582Z,4.97
2022-08-26T10:11:50.158Z,5.63
2022-08-26T10:14:31.825Z,5.60
2022-08-26T10:17:24.883Z,6.67
2022-08-26T10:20:22.938Z,5.03
2022-08-26T10:23:02.905Z,6.23
2022-08-26T10:26:05.618Z,5.70
2022-08-26T10:28:58.044Z,5.80
2022-08-26T10:31:51.418Z,5.17
2022-08-26T10:34:27.086Z,6.63
2022-08-26T10:37:20.420Z,5.53
2022-08-26T10:40:02.383Z,5.63
2022-08-26T10:42:44.766Z,6.20
2022-08-26T10:45:26.557Z,6.03
2022-08-26T10:48:12.403Z,6.00
2022-08-26T10:50:48.728Z,5.80
2022-08-26T10:53:33.748Z,6.40
2022-08-26T10:56:38.193Z,6.03
2022-08-26T10:59:31.083Z,6.00
2022-08-26T11:02:31.744Z,6.20
2022-08-26T11:05:23.601Z,6.63
2022-08-26T11:08:20.445Z,6.43
2022-08-26T11:10:59.557Z,5.87
2022-08-26T11:13:56.696Z,6.90
2022-08-26T11:16:52.941Z,6.20
2022-08-26T11:19:59.658Z,6.67
2022-08-26T11:22:47.527Z,6.17
2022-08-26T11:25:30.004Z,5.83
2022-08-26T11:28:06.084Z,6.20
2022-08-26T11:30:43.777Z,5.70
2022-08-26T11:33:51.845Z,5.70
2022-08-26T11:36:51.001Z,6.53
2022-08-26T11:39:53.998Z,5.87
2022-08-26T11:42:49.093Z,5.87
2022-08-26T11:45:59.625Z,6.10
2022-08-26T11:48:38.789Z,5.33
2022-08-26T11:51:24.409Z,5.40
2022-08-26T11:54:30.777Z,6.07
2022-08-26T11:57:13.540Z,5.70
2022-08-26T11:59:48.712Z,5.90
2022-08-26T12:02:24.211Z,6.80
2022-08-26T12:05:00.514Z,6.53
2022-08-26T12:07:35.603Z,5.67
2022-08-26T12:10:11.435Z,5.47
2022-08-26T12:12:55.112Z,5.90
2022-08-26T12:15:32.373Z,5.83
2022-08-26T12:18:28.885Z,7.00
2022-08-26T12:21:29.323Z,6.23
2022-08-26T12:24:09.866Z,6.10
2022-08-26T12:26:45.492Z,6.17
2022-08-26T12:29:28.306Z,6.30
2022-08-26T12:32:14.912Z,6.57
2022-08-26T12:34:50.168Z,6.03
2022-08-26T12:37:28.143Z,6.10
2022-08-26T12:40:35.411Z,6.50
2022-08-26T12:43:15.865Z,6.60
2022-08-26T12:46:02.144Z,7.00
2022-08-26T12:48:41.222Z,5.70
2022-08-26T12:51:26.652Z,5.63
2022-08-26T12:54:06.631Z,6.00
2022-08-26T12:56:41.692Z,6.20
2022-08-26T12:59:25.768Z,6.37
2022-08-26T13:02:00.946Z,5.67
2022-08-26T13:04:41.036Z,6.50
2022-08-26T13:07:24.318Z,5.60
2022-08-26T13:10:00.888Z,6.20
2022-08-26T13:12:37.418Z,5.67
2022-08-26T13:15:12.549Z,5.67
2022-08-26T13:17:47.736Z,5.30
2022-08-26T13:20:22.976Z,5.10
2022-08-26T13:22:59.464Z,5.30
2022-08-26T13:25:34.573Z,4.60
2022-08-26T13:28:09.579Z,4.30
2022-08-26T13:30:48.132Z,4.47
2022-08-26T13:33:23.088Z,3.63
2022-08-26T13:35:59.871Z,3.97
2022-08-26T13:38:34.962Z,4.77
2022-08-26T13:41:11.281Z,3.83
2022-08-26T13:43:48.757Z,4.80
2022-08-26T13:46:23.763Z,4.90
2022-08-26T13:48:59.222Z,5.40
2022-08-26T13:51:34.398Z,4.17
2022-08-26T13:54:09.525Z,4.53
2022-08-26T13:56:45.173Z,4.70
2022-08-26T13:59:20.129Z,4.67
2022-08-26T14:01:55.180Z,5.70
2022-08-26T14:04:30.308Z,5.33
2022-08-26T14:07:05.325Z,5.10
2022-08-26T14:09:40.605Z,5.40
2022-08-26T14:12:16.514Z,5.13
2022-08-26T14:14:51.652Z,5.23
2022-08-26T14:17:27.154Z,4.80
2022-08-26T14:20:09.153Z,5.10
2022-08-26T14:23:03.411Z,4.87
2022-08-26T14:25:40.302Z,5.50
2022-08-26T14:28:16.027Z,5.50
2022-08-26T14:30:58.125Z,5.47
2022-08-26T14:33:38.223Z,5.23
2022-08-26T14:36:28.108Z,5.00
2022-08-26T14:39:11.148Z,5.00
2022-08-26T14:41:54.379Z,5.30
2022-08-26T14:44:33.088Z,5.10
2022-08-26T14:47:08.471Z,5.63
2022-08-26T14:49:43.555Z,5.30
2022-08-26T14:52:18.607Z,5.57
2022-08-26T14:54:54.929Z,5.70
2022-08-26T14:57:30.540Z,5.67
2022-08-26T15:00:06.700Z,4.97
2022-08-26T15:02:42.435Z,5.50
2022-08-26T15:05:18.289Z,5.30
2022-08-26T15:07:53.524Z,5.27
2022-08-26T15:10:28.533Z,5.10
2022-08-26T15:13:03.583Z,5.20
2022-08-26T15:15:38.730Z,5.83
2022-08-26T15:18:13.827Z,5.33
2022-08-26T15:20:49.095Z,5.23
2022-08-26T15:23:24.126Z,5.40
2022-08-26T15:25:59.231Z,5.30
2022-08-26T15:28:34.645Z,5.43
2022-08-26T15:31:10.295Z,5.63
2022-08-26T15:33:45.926Z,6.03
2022-08-26T15:36:21.028Z,5.97
2022-08-26T15:38:58.894Z,5.73
2022-08-26T15:41:34.940Z,6.00
2022-08-26T15:44:11.870Z,6.00
2022-08-26T15:46:49.600Z,5.70
2022-08-26T15:49:24.826Z,5.50
2022-08-26T15:51:59.964Z,5.70
2022-08-26T15:54:35.533Z,4.60
2022-08-26T15:57:12.364Z,5.57
2022-08-26T15:59:48.875Z,4.70
2022-08-26T16:02:27.251Z,4.63
2022-08-26T16:05:04.417Z,4.60
2022-08-26T16:07:40.445Z,4.27
2022-08-26T16:10:15.380Z,5.37
2022-08-26T16:12:50.783Z,5.03
2022-08-26T16:15:25.760Z,6.90
2022-08-26T16:18:02.306Z,5.27
2022-08-26T16:20:56.020Z,6.00
2022-08-26T16:23:45.078Z,5.80
2022-08-26T16:26:25.725Z,6.57
2022-08-26T16:29:09.131Z,5.53
2022-08-26T16:31:44.150Z,6.20
2022-08-26T16:34:19.292Z,6.27
2022-08-26T16:36:54.368Z,6.70
2022-08-26T16:39:29.405Z,8.60
2022-08-26T16:42:05.204Z,9.27
2022-08-26T16:44:46.524Z,9.00
2022-08-26T16:47:23.088Z,8.37
2022-08-26T16:49:58.280Z,9.73
2022-08-26T16:52:34.106Z,9.30
2022-08-26T16:55:14.415Z,8.00
2022-08-26T16:57:51.558Z,9.70
2022-08-26T17:00:30.391Z,9.10
2022-08-26T17:03:05.700Z,7.33
2022-08-26T17:05:40.692Z,6.67
2022-08-26T17:08:24.256Z,6.77
2022-08-26T17:11:02.713Z,6.83
2022-08-26T17:13:39.034Z,6.10
2022-08-26T17:16:14.884Z,4.83
2022-08-26T17:18:50.163Z,4.97
2022-08-26T17:21:27.886Z,2.70
2022-08-26T17:24:05.270Z,1.80
2022-08-26T17:26:44.206Z,1.70
2022-08-26T17:29:23.439Z,1.70
2022-08-26T17:31:58.617Z,2.50
2022-08-26T17:34:33.849Z,1.80
2022-08-26T17:37:08.898Z,2.00
2022-08-26T17:39:44.147Z,2.20
2022-08-26T17:42:19.247Z,3.10
2022-08-26T17:44:55.280Z,3.60
2022-08-26T17:47:32.074Z,3.30
2022-08-26T17:50:11.304Z,4.00
2022-08-26T17:52:46.714Z,4.30
2022-08-26T17:55:22.057Z,4.70
2022-08-26T17:57:59.373Z,6.10
2022-08-26T18:00:36.376Z,7.10
2022-08-26T18:03:11.789Z,10.07
2022-08-26T18:05:52.061Z,14.00
2022-08-26T18:08:27.173Z,14.50
2022-08-26T18:11:02.944Z,14.33
2022-08-26T18:13:38.872Z,14.20
2022-08-26T18:16:22.439Z,13.80
2022-08-26T18:18:58.369Z,13.77
2022-08-26T18:21:33.403Z,13.87
2022-08-26T18:24:13.376Z,12.60
2022-08-26T18:26:50.883Z,13.57
2022-08-26T18:29:26.046Z,13.20
2022-08-26T18:32:01.327Z,12.83
2022-08-26T18:34:36.652Z,14.60
2022-08-26T18:39:48.690Z,15.17
2022-08-26T18:42:23.993Z,14.97
2022-08-26T18:44:58.975Z,13.40
2022-08-26T18:47:34.205Z,15.87
2022-08-26T18:50:11.177Z,16.27
2022-08-26T18:52:46.168Z,15.40
2022-08-26T18:55:21.517Z,16.53
2022-08-26T18:57:56.392Z,15.60
2022-08-26T19:00:31.573Z,15.23
2022-08-26T19:03:08.308Z,15.53
2022-08-26T19:05:54.090Z,16.50
2022-08-26T19:08:28.982Z,15.33
2022-08-26T19:11:04.525Z,13.60
2022-08-26T19:13:42.930Z,14.53
2022-08-26T19:16:21.118Z,15.83
2022-08-26T19:18:58.301Z,15.67
2022-08-26T19:21:35.613Z,15.80
2022-08-26T19:24:17.169Z,13.87
2022-08-26T19:26:57.934Z,14.70
2022-08-26T19:29:35.461Z,14.90
2022-08-26T19:32:10.362Z,14.10
2022-08-26T19:34:45.296Z,15.60
2022-08-26T19:37:21.149Z,14.93
2022-08-26T19:39:56.138Z,14.80
2022-08-26T19:42:31.051Z,15.13
2022-08-26T19:45:20.225Z,16.10
2022-08-26T19:48:00.614Z,15.10
2022-08-26T19:50:35.714Z,16.43
2022-08-26T19:53:10.591Z,16.17
2022-08-26T19:55:45.459Z,15.20
2022-08-26T19:58:20.349Z,15.73
2022-08-26T20:00:55.291Z,14.70
2022-08-26T20:03:30.574Z,15.20
2022-08-26T20:06:08.478Z,14.33
2022-08-26T20:08:44.733Z,15.83
2022-08-26T20:11:19.675Z,14.37
2022-08-26T20:13:55.218Z,15.50
2022-08-26T20:16:30.319Z,14.30
2022-08-26T20:19:23.687Z,14.20
2022-08-26T20:21:58.600Z,14.80
2022-08-26T20:24:35.547Z,16.10
2022-08-26T20:27:10.440Z,15.80
2022-08-26T20:29:45.466Z,16.73
2022-08-26T20:32:20.474Z,15.67
2022-08-26T20:34:55.709Z,15.90
2022-08-26T20:37:31.913Z,16.37
2022-08-26T20:40:09.395Z,15.30
2022-08-26T20:42:44.325Z,16.90
2022-08-26T20:45:19.342Z,15.40
2022-08-26T20:47:54.835Z,16.20
2022-08-26T20:50:32.591Z,17.20
2022-08-26T20:53:08.900Z,16.73
2022-08-26T20:55:43.791Z,18.00
2022-08-26T20:58:19.198Z,17.10
2022-08-26T21:00:54.451Z,16.90
2022-08-26T21:03:30.623Z,17.37
2022-08-26T21:06:05.927Z,15.47
2022-08-26T21:08:42.620Z,15.40
2022-08-26T21:11:18.769Z,17.23
2022-08-26T21:14:16.197Z,19.80
2022-08-26T21:16:48.883Z,18.27
2022-08-26T21:19:23.844Z,18.30
2022-08-26T21:21:59.340Z,17.07
2022-08-26T21:24:34.237Z,17.33
2022-08-26T21:27:09.107Z,17.40
2022-08-26T21:29:44.017Z,19.53
2022-08-26T21:32:23.554Z,19.30
2022-08-26T21:34:59.881Z,19.17
2022-08-26T21:37:34.794Z,20.03
2022-08-26T21:40:10.514Z,20.60
2022-08-26T21:42:45.550Z,19.07
2022-08-26T21:45:20.530Z,18.70
2022-08-26T21:47:55.543Z,19.20
2022-08-26T21:50:30.533Z,16.90
2022-08-26T21:53:05.641Z,18.90
2022-08-26T21:55:42.173Z,20.97
2022-08-26T21:58:17.043Z,18.70
2022-08-26T22:00:52.043Z,17.40
2022-08-26T22:03:27.117Z,17.10
2022-08-26T22:06:02.051Z,18.17
2022-08-26T22:08:37.225Z,17.53
2022-08-26T22:11:13.168Z,15.53
2022-08-26T22:13:49.436Z,16.20
2022-08-26T22:16:26.712Z,16.93
2022-08-26T22:19:02.005Z,19.10
2022-08-26T22:21:37.369Z,18.83
2022-08-26T22:24:12.512Z,19.40
2022-08-26T22:26:48.642Z,18.37
2022-08-26T22:29:25.039Z,18.43
2022-08-26T22:32:00.963Z,18.23
2022-08-26T22:34:35.906Z,17.77
2022-08-26T22:37:11.504Z,16.93
2022-08-26T22:39:46.451Z,21.43
2022-08-26T22:42:21.654Z,22.60
2022-08-26T22:44:56.516Z,20.63
2022-08-26T22:47:33.140Z,23.40
2022-08-26T22:50:10.677Z,22.00
2022-08-26T22:52:45.539Z,24.40
2022-08-26T22:55:20.411Z,20.67
2022-08-26T22:57:55.304Z,22.17
2022-08-26T23:00:32.447Z,26.10
2022-08-26T23:03:07.830Z,23.00
2022-08-26T23:05:44.438Z,22.20
2022-08-26T23:08:21.297Z,23.80
2022-08-26T23:10:56.302Z,26.17
2022-08-26T23:13:31.427Z,23.80
2022-08-26T23:16:10.885Z,26.37
2022-08-26T23:18:45.886Z,26.00
2022-08-26T23:21:20.957Z,26.70
2022-08-26T23:23:56.298Z,28.10
2022-08-26T23:26:31.826Z,27.83
2022-08-26T23:29:09.896Z,28.30
2022-08-26T23:31:45.004Z,30.67
2022-08-26T23:34:39.072Z,30.33
2022-08-26T23:37:14.130Z,31.70
2022-08-26T23:39:50.590Z,34.70
2022-08-26T23:42:25.547Z,34.00
2022-08-26T23:45:09.990Z,39.50
2022-08-26T23:47:45.548Z,37.87
2022-08-26T23:50:45.028Z,38.90
2022-08-26T23:53:22.385Z,39.43
2022-08-26T23:55:57.275Z,42.70
2022-08-26T23:58:32.138Z,38.73
